首页
METAR-TAF:

METAR-TAF

机场 :

卡尔斯鲁厄/巴登-巴登机场

巴登-巴登, 德国

纬度: 48-46-43N, 经度: 008-04-47E, 海拔: 124米

当前天气观测

该预报发布于33分钟前的10:20 UTC
风速4节,风向,在西北转东北之间变化
温度 3°C
湿度 100%
气压 1008 hPa
能見度: 2900
阴天层高于200英尺
轻雾

METAR: EDSB 221020Z 35004KT 280V030 2900 BR OVC002 03/03 Q1008

时间: 11:53 (10:53 UTC)

预报

该预报发布于52分钟前的10:01 UTC
预报有效从22日的 10点(UTC)到 23日的 06点(UTC)
风速5节,风向北转东北
能見度: 4000
轻雾
短暂存在
从 22日的 10点(UTC)到 22日的 12点(UTC)
能見度: 1200
多云层高于100英尺
轻雾
成为
从 22日的 10点(UTC)到 22日的 13点(UTC)
能見度: 8000
成为
从 22日的 17点(UTC)到 22日的 20点(UTC)
能見度: 0300
多云层高于300英尺

TAF: EDSB 221001Z 2210/2306 03005KT 4000 BR NSC TEMPO 2210/2212 1200 BR BKN001 BECMG 2210/2213 8000 BECMG 2217/2220 0300 FG BKN003

超过4000个机场的气象观测和天气预报(METAR&TAF报告)。

可查询的气象台以黄色和红色小点在地图上表示。

将鼠标移到小点上方,可查看气象台名称。

然后点击查看天气观测和预报。

如需切换地图:点击带黑十字的绿色按钮放大地图;点击带横线的绿色按钮缩小地图;或者点击绿色箭头查看邻近地区的地图。


METAR-TAF: